createdAt,value
2023-08-19T00:01:09.739Z,10.30
2023-08-19T00:03:37.120Z,12.52
2023-08-19T00:06:10.782Z,7.95
2023-08-19T00:08:38.332Z,9.00
2023-08-19T00:11:05.934Z,8.13
2023-08-19T00:13:33.383Z,7.18
2023-08-19T00:16:05.351Z,9.30
2023-08-19T00:18:32.861Z,8.63
2023-08-19T00:21:00.147Z,8.38
2023-08-19T00:23:27.433Z,9.52
2023-08-19T00:25:54.750Z,8.25
2023-08-19T00:28:24.813Z,11.02
2023-08-19T00:30:52.228Z,9.25
2023-08-19T00:33:19.600Z,8.13
2023-08-19T00:35:51.921Z,8.48
2023-08-19T00:38:19.319Z,7.35
2023-08-19T00:40:47.070Z,10.77
2023-08-19T00:43:14.408Z,9.45
2023-08-19T00:45:47.683Z,9.07
2023-08-19T00:48:18.464Z,6.15
2023-08-19T00:50:46.351Z,10.05
2023-08-19T00:53:15.068Z,7.80
2023-08-19T00:55:42.685Z,8.32
2023-08-19T00:58:11.465Z,7.97
2023-08-19T01:00:39.360Z,7.43
2023-08-19T01:03:07.590Z,9.57
2023-08-19T01:05:50.982Z,10.23
2023-08-19T01:08:26.912Z,12.20
2023-08-19T01:11:07.144Z,8.07
2023-08-19T01:13:46.059Z,8.73
2023-08-19T01:16:21.904Z,7.57
2023-08-19T01:18:49.946Z,9.10
2023-08-19T01:21:21.229Z,6.78
2023-08-19T01:23:50.144Z,8.75
2023-08-19T01:26:18.648Z,13.35
2023-08-19T01:28:46.798Z,9.18
2023-08-19T01:31:14.109Z,6.70
2023-08-19T01:33:42.104Z,8.20
2023-08-19T01:36:30.660Z,8.77
2023-08-19T01:39:06.734Z,12.05
2023-08-19T01:41:35.669Z,9.18
2023-08-19T01:44:04.097Z,12.48
2023-08-19T01:46:31.569Z,6.78
2023-08-19T01:48:58.957Z,8.75
2023-08-19T01:51:31.669Z,7.78
2023-08-19T01:53:59.179Z,8.20
2023-08-19T01:56:26.540Z,8.63
2023-08-19T01:58:55.454Z,10.30
2023-08-19T02:01:23.348Z,8.18
2023-08-19T02:03:50.777Z,10.40
2023-08-19T02:06:18.122Z,8.70
2023-08-19T02:08:45.534Z,11.13
2023-08-19T02:11:14.996Z,7.10
2023-08-19T02:13:43.668Z,9.52
2023-08-19T02:16:11.069Z,12.38
2023-08-19T02:18:38.354Z,10.73
2023-08-19T02:21:05.640Z,10.13
2023-08-19T02:23:32.944Z,9.93
2023-08-19T02:26:00.219Z,8.75
2023-08-19T02:28:28.732Z,12.75
2023-08-19T02:31:01.920Z,10.75
2023-08-19T02:33:32.370Z,8.98
2023-08-19T02:35:59.770Z,7.20
2023-08-19T02:38:27.149Z,8.32
2023-08-19T02:40:54.783Z,8.48
2023-08-19T02:43:22.067Z,10.23
2023-08-19T02:45:49.489Z,7.57
2023-08-19T02:48:17.328Z,9.43
2023-08-19T02:50:47.433Z,8.57
2023-08-19T02:53:14.775Z,11.20
2023-08-19T02:55:42.662Z,9.43
2023-08-19T02:58:10.856Z,10.23
2023-08-19T03:00:38.349Z,9.05
2023-08-19T03:03:07.149Z,7.18
2023-08-19T03:05:40.716Z,10.50
2023-08-19T03:08:09.624Z,9.55
2023-08-19T03:10:38.630Z,6.63
2023-08-19T03:13:07.244Z,16.90
2023-08-19T03:15:39.576Z,9.32
2023-08-19T03:18:07.251Z,10.55
2023-08-19T03:20:35.343Z,6.82
2023-08-19T03:23:02.906Z,8.40
2023-08-19T03:25:30.391Z,7.35
2023-08-19T03:27:59.825Z,9.43
2023-08-19T03:30:27.118Z,7.38
2023-08-19T03:32:54.501Z,8.68
2023-08-19T03:35:22.106Z,9.82
2023-08-19T03:37:49.503Z,9.15
2023-08-19T03:40:16.903Z,11.95
2023-08-19T03:42:44.276Z,11.25
2023-08-19T03:45:11.582Z,9.63
2023-08-19T03:47:38.897Z,9.35
2023-08-19T03:50:06.827Z,8.55
2023-08-19T03:52:34.177Z,10.65
2023-08-19T03:55:01.569Z,10.15
2023-08-19T03:57:29.021Z,9.57
2023-08-19T03:59:57.008Z,9.88
2023-08-19T04:02:24.488Z,7.03
2023-08-19T04:05:07.456Z,13.57
2023-08-19T04:07:36.121Z,9.43
2023-08-19T04:10:05.207Z,10.32
2023-08-19T04:12:36.095Z,9.40
2023-08-19T04:15:04.380Z,10.43
2023-08-19T04:17:35.660Z,11.07
2023-08-19T04:20:10.201Z,7.20
2023-08-19T04:22:41.813Z,6.93
2023-08-19T04:25:09.402Z,9.18
2023-08-19T04:27:36.838Z,10.60
2023-08-19T04:30:06.399Z,9.10
2023-08-19T04:32:34.630Z,7.80
2023-08-19T04:35:02.454Z,9.77
2023-08-19T04:37:30.156Z,11.38
2023-08-19T04:39:58.005Z,7.88
2023-08-19T04:42:32.823Z,9.77
2023-08-19T04:45:00.215Z,8.77
2023-08-19T04:47:29.697Z,12.68
2023-08-19T04:50:00.421Z,8.38
2023-08-19T04:52:28.165Z,9.80
2023-08-19T04:54:55.599Z,9.35
2023-08-19T04:57:23.005Z,10.20
2023-08-19T04:59:51.197Z,10.15
2023-08-19T05:02:18.561Z,8.85
2023-08-19T05:04:46.042Z,8.30
2023-08-19T05:07:13.426Z,10.10
2023-08-19T05:09:40.790Z,6.57
2023-08-19T05:12:08.502Z,7.65
2023-08-19T05:14:35.841Z,9.68
2023-08-19T05:17:03.201Z,10.40
2023-08-19T05:19:32.654Z,9.82
2023-08-19T05:21:59.950Z,7.22
2023-08-19T05:24:27.412Z,9.20
2023-08-19T05:26:54.971Z,10.23
2023-08-19T05:29:22.364Z,10.00
2023-08-19T05:31:50.060Z,11.07
2023-08-19T05:34:17.557Z,9.90
2023-08-19T05:36:46.448Z,6.82
2023-08-19T05:39:13.837Z,8.60
2023-08-19T05:41:41.266Z,8.27
2023-08-19T05:44:08.586Z,7.55
2023-08-19T05:46:35.880Z,9.32
2023-08-19T05:49:03.394Z,12.68
2023-08-19T05:51:30.938Z,9.60
2023-08-19T05:54:02.124Z,13.65
2023-08-19T05:56:29.559Z,7.78
2023-08-19T05:58:56.994Z,9.45
2023-08-19T06:01:25.152Z,6.65
2023-08-19T06:03:52.794Z,7.57
2023-08-19T06:06:20.273Z,7.95
2023-08-19T06:08:47.660Z,8.68
2023-08-19T06:11:15.112Z,12.07
2023-08-19T06:13:42.741Z,8.55
2023-08-19T06:16:10.083Z,14.60
2023-08-19T06:18:37.454Z,9.45
2023-08-19T06:21:04.786Z,8.88
2023-08-19T06:23:32.199Z,9.10
2023-08-19T06:25:59.706Z,6.95
2023-08-19T06:28:27.099Z,8.88
2023-08-19T06:30:55.041Z,8.05
2023-08-19T06:33:22.952Z,9.50
2023-08-19T06:35:50.933Z,8.40
2023-08-19T06:38:28.572Z,10.65
2023-08-19T06:41:04.122Z,10.93
2023-08-19T06:43:32.601Z,7.00
2023-08-19T06:46:03.986Z,10.52
2023-08-19T06:48:32.900Z,7.63
2023-08-19T06:51:01.835Z,7.28
2023-08-19T06:53:29.687Z,8.25
2023-08-19T06:55:59.790Z,9.70
2023-08-19T06:58:30.335Z,8.80
2023-08-19T07:01:04.572Z,13.07
2023-08-19T07:03:34.382Z,12.35
2023-08-19T07:06:03.924Z,13.18
2023-08-19T07:08:33.033Z,9.77
2023-08-19T07:11:02.225Z,13.98
2023-08-19T07:13:29.866Z,12.30
2023-08-19T07:16:03.437Z,10.05
2023-08-19T07:18:42.028Z,8.70
2023-08-19T07:21:13.102Z,12.10
2023-08-19T07:23:48.704Z,8.88
2023-08-19T07:26:16.733Z,15.40
2023-08-19T07:28:44.399Z,23.30
2023-08-19T07:31:12.671Z,43.72
2023-08-19T07:33:40.066Z,63.00
2023-08-19T07:36:07.581Z,63.35
2023-08-19T07:38:34.939Z,52.70
2023-08-19T07:41:04.695Z,39.08
2023-08-19T07:43:32.004Z,31.75
2023-08-19T07:46:00.439Z,22.30
2023-08-19T07:48:27.805Z,18.23
2023-08-19T07:50:55.161Z,10.98
2023-08-19T07:53:22.464Z,13.10
2023-08-19T07:55:49.933Z,9.95
2023-08-19T07:58:18.014Z,7.82
2023-08-19T08:00:45.390Z,12.75
2023-08-19T08:03:12.762Z,9.93
2023-08-19T08:05:40.611Z,11.75
2023-08-19T08:08:08.033Z,10.07
2023-08-19T08:10:35.378Z,12.73
2023-08-19T08:13:02.866Z,9.73
2023-08-19T08:15:32.754Z,9.38
2023-08-19T08:18:00.149Z,8.73
2023-08-19T08:20:27.589Z,9.32
2023-08-19T08:22:54.929Z,7.57
2023-08-19T08:25:22.244Z,9.07
2023-08-19T08:27:49.628Z,9.60
2023-08-19T08:30:16.987Z,12.05
2023-08-19T08:32:44.354Z,9.07
2023-08-19T08:35:11.812Z,7.18
2023-08-19T08:37:39.161Z,7.70
2023-08-19T08:40:07.082Z,6.47
2023-08-19T08:42:34.893Z,6.88
2023-08-19T08:45:02.501Z,6.47
2023-08-19T08:47:31.950Z,6.88
2023-08-19T08:50:00.327Z,7.55
2023-08-19T08:52:27.747Z,5.85
2023-08-19T08:54:57.108Z,7.00
2023-08-19T08:57:24.405Z,9.20
2023-08-19T08:59:51.835Z,8.75
2023-08-19T09:02:22.667Z,7.32
2023-08-19T09:04:50.155Z,9.68
2023-08-19T09:07:26.206Z,6.30
2023-08-19T09:09:54.294Z,9.70
2023-08-19T09:12:23.316Z,8.35
2023-08-19T09:14:58.715Z,11.50
2023-08-19T09:17:26.160Z,6.93
2023-08-19T09:19:53.564Z,9.60
2023-08-19T09:22:22.528Z,12.02
2023-08-19T09:24:50.953Z,9.85
2023-08-19T09:27:26.815Z,10.98
2023-08-19T09:29:54.515Z,7.50
2023-08-19T09:32:33.274Z,7.63
2023-08-19T09:35:09.623Z,8.50
2023-08-19T09:37:37.680Z,10.95
2023-08-19T09:40:09.570Z,10.38
2023-08-19T09:42:37.573Z,6.95
2023-08-19T09:45:06.082Z,7.43
2023-08-19T09:47:47.904Z,8.98
2023-08-19T09:50:19.752Z,11.18
2023-08-19T09:53:00.756Z,9.65
2023-08-19T09:55:31.424Z,12.27
2023-08-19T09:57:59.005Z,9.20
2023-08-19T10:00:26.450Z,7.13
2023-08-19T10:02:53.848Z,7.75
2023-08-19T10:05:21.875Z,7.32
2023-08-19T10:08:00.073Z,9.93
2023-08-19T10:10:31.152Z,8.43
2023-08-19T10:12:58.929Z,11.55
2023-08-19T10:15:27.858Z,7.30
2023-08-19T10:17:58.527Z,9.07
2023-08-19T10:20:29.092Z,8.00
2023-08-19T10:23:00.021Z,7.63
2023-08-19T10:25:31.775Z,13.32
2023-08-19T10:28:13.890Z,8.98
2023-08-19T10:30:41.334Z,13.18
2023-08-19T10:33:29.211Z,10.60
2023-08-19T10:36:01.820Z,10.27
2023-08-19T10:38:58.386Z,9.50
2023-08-19T10:41:28.183Z,10.10
2023-08-19T10:43:58.419Z,12.70
2023-08-19T10:46:35.318Z,11.60
2023-08-19T10:49:07.851Z,10.20
2023-08-19T10:52:06.960Z,10.65
2023-08-19T10:54:42.034Z,13.45
2023-08-19T10:57:23.672Z,9.95
2023-08-19T10:59:55.431Z,12.02
2023-08-19T11:04:54.664Z,12.23
2023-08-19T11:09:50.851Z,6.65
2023-08-19T11:12:19.812Z,9.40
2023-08-19T11:14:51.905Z,9.30
2023-08-19T11:17:27.613Z,8.85
2023-08-19T11:19:55.005Z,10.00
2023-08-19T11:22:22.719Z,8.48
2023-08-19T11:24:51.422Z,6.57
2023-08-19T11:27:19.976Z,9.93
2023-08-19T11:29:48.296Z,9.68
2023-08-19T11:32:20.837Z,9.85
2023-08-19T11:34:48.375Z,9.35
2023-08-19T11:37:17.204Z,12.35
2023-08-19T11:39:46.271Z,11.52
2023-08-19T11:42:14.256Z,8.85
2023-08-19T11:44:45.025Z,12.77
2023-08-19T11:47:13.213Z,14.13
2023-08-19T11:49:43.657Z,10.00
2023-08-19T11:52:23.051Z,8.07
2023-08-19T11:55:04.451Z,10.85
2023-08-19T11:57:35.993Z,12.98
2023-08-19T12:02:40.594Z,8.23
2023-08-19T12:05:09.212Z,8.30
2023-08-19T12:07:36.610Z,9.27
2023-08-19T12:10:05.206Z,11.60
2023-08-19T12:12:33.339Z,7.38
2023-08-19T12:15:02.045Z,9.38
2023-08-19T12:17:30.714Z,8.68
2023-08-19T12:19:58.259Z,8.20
2023-08-19T12:22:25.653Z,10.10
2023-08-19T12:24:53.057Z,11.93
2023-08-19T12:27:20.449Z,18.55
2023-08-19T12:29:49.825Z,9.55
2023-08-19T12:32:17.156Z,11.82
2023-08-19T12:34:44.456Z,6.65
2023-08-19T12:37:11.788Z,8.35
2023-08-19T12:39:39.112Z,9.82
2023-08-19T12:42:06.605Z,14.40
2023-08-19T12:44:34.045Z,7.75
2023-08-19T12:47:02.136Z,12.00
2023-08-19T12:49:29.509Z,10.95
2023-08-19T12:51:57.506Z,10.65
2023-08-19T12:54:24.940Z,7.80
2023-08-19T12:56:52.285Z,10.75
2023-08-19T12:59:19.745Z,11.15
2023-08-19T13:01:47.069Z,9.52
2023-08-19T13:04:14.453Z,21.10
2023-08-19T13:06:42.792Z,10.35
2023-08-19T13:09:10.737Z,10.55
2023-08-19T13:11:38.472Z,12.13
2023-08-19T13:14:05.943Z,9.00
2023-08-19T13:16:33.240Z,9.57
2023-08-19T13:19:01.642Z,8.02
2023-08-19T13:21:29.021Z,10.55
2023-08-19T13:23:56.410Z,8.88
2023-08-19T13:26:23.731Z,11.52
2023-08-19T13:28:51.081Z,10.68
2023-08-19T13:31:19.535Z,8.40
2023-08-19T13:33:47.288Z,11.43
2023-08-19T13:36:14.664Z,9.20
2023-08-19T13:38:44.122Z,9.70
2023-08-19T13:41:12.036Z,8.60
2023-08-19T13:43:40.431Z,12.77
2023-08-19T13:46:08.480Z,11.10
2023-08-19T13:48:35.852Z,11.55
2023-08-19T13:51:03.227Z,8.88
2023-08-19T13:53:32.158Z,13.98
2023-08-19T13:55:59.528Z,13.13
2023-08-19T13:58:26.864Z,11.90
2023-08-19T14:00:54.200Z,10.57
2023-08-19T14:03:22.298Z,9.23
2023-08-19T14:05:49.691Z,13.15
2023-08-19T14:08:19.495Z,9.93
2023-08-19T14:10:46.953Z,9.13
2023-08-19T14:13:14.327Z,9.27
2023-08-19T14:15:41.900Z,10.45
2023-08-19T14:18:09.300Z,8.27
2023-08-19T14:20:36.664Z,10.95
2023-08-19T14:23:04.456Z,9.57
2023-08-19T14:25:31.857Z,10.00
2023-08-19T14:27:59.223Z,11.63
2023-08-19T14:30:26.560Z,12.68
2023-08-19T14:32:53.945Z,9.18
2023-08-19T14:35:22.046Z,11.23
2023-08-19T14:37:49.902Z,9.88
2023-08-19T14:40:20.239Z,10.95
2023-08-19T14:42:48.409Z,11.18
2023-08-19T14:45:16.374Z,13.63
2023-08-19T14:47:43.782Z,11.88
2023-08-19T14:50:11.329Z,7.32
2023-08-19T14:52:38.720Z,11.30
2023-08-19T14:55:11.858Z,14.77
2023-08-19T14:57:39.563Z,14.43
2023-08-19T15:00:13.753Z,9.60
2023-08-19T15:02:49.322Z,15.45
2023-08-19T15:05:17.218Z,15.75
2023-08-19T15:07:45.289Z,12.38
2023-08-19T15:10:12.701Z,16.05
2023-08-19T15:12:40.552Z,10.15
2023-08-19T15:15:09.442Z,10.35
2023-08-19T15:17:37.052Z,8.85
2023-08-19T15:20:05.417Z,16.10
2023-08-19T15:22:32.784Z,12.13
2023-08-19T15:25:00.230Z,11.00
2023-08-19T15:27:27.569Z,9.60
2023-08-19T15:29:54.973Z,10.65
2023-08-19T15:32:22.371Z,11.70
2023-08-19T15:34:49.759Z,9.55
2023-08-19T15:37:18.246Z,13.20
2023-08-19T15:39:45.691Z,10.23
2023-08-19T15:42:13.497Z,11.98
2023-08-19T15:44:41.050Z,12.40
2023-08-19T15:47:08.751Z,8.13
2023-08-19T15:49:36.107Z,11.07
2023-08-19T15:52:04.093Z,12.10
2023-08-19T15:54:31.468Z,8.13
2023-08-19T15:56:58.806Z,9.68
2023-08-19T15:59:26.172Z,9.43
2023-08-19T16:01:53.414Z,10.55
2023-08-19T16:04:20.743Z,9.43
2023-08-19T16:06:48.136Z,12.68
2023-08-19T16:09:16.956Z,10.73
2023-08-19T16:11:44.365Z,12.73
2023-08-19T16:14:11.708Z,10.73
2023-08-19T16:16:39.025Z,13.07
2023-08-19T16:19:06.501Z,7.45
2023-08-19T16:21:33.959Z,11.60
2023-08-19T16:24:01.396Z,9.40
2023-08-19T16:26:28.662Z,9.65
2023-08-19T16:28:55.948Z,8.65
2023-08-19T16:31:23.299Z,11.13
2023-08-19T16:33:50.658Z,12.68
2023-08-19T16:36:18.050Z,14.75
2023-08-19T16:38:45.398Z,15.35
2023-08-19T16:41:12.736Z,11.45
2023-08-19T16:43:40.134Z,9.63
2023-08-19T16:46:07.555Z,12.02
2023-08-19T16:48:35.056Z,8.75
2023-08-19T16:51:04.092Z,11.38
2023-08-19T16:53:31.476Z,11.25
2023-08-19T16:56:00.377Z,10.68
2023-08-19T16:58:28.079Z,8.98
2023-08-19T17:01:08.495Z,16.80
2023-08-19T17:03:35.826Z,8.98
2023-08-19T17:06:07.516Z,9.15
2023-08-19T17:08:35.597Z,15.52
2023-08-19T17:11:03.473Z,9.20
2023-08-19T17:13:30.879Z,9.05
2023-08-19T17:15:59.180Z,11.48
2023-08-19T17:18:27.164Z,11.45
2023-08-19T17:20:58.796Z,14.02
2023-08-19T17:23:30.130Z,10.07
2023-08-19T17:25:57.686Z,10.68
2023-08-19T17:28:25.379Z,9.93
2023-08-19T17:31:06.901Z,12.63
2023-08-19T17:33:34.529Z,9.98
2023-08-19T17:36:03.927Z,10.23
2023-08-19T17:38:32.471Z,12.82
2023-08-19T17:41:00.985Z,11.52
2023-08-19T17:43:28.659Z,11.10
2023-08-19T17:45:56.119Z,10.90
2023-08-19T17:48:23.556Z,10.32
2023-08-19T17:50:50.979Z,7.82
2023-08-19T17:53:19.075Z,13.55
2023-08-19T17:55:46.440Z,8.60
2023-08-19T17:58:13.805Z,9.65
2023-08-19T18:00:43.802Z,9.52
2023-08-19T18:03:11.632Z,11.77
2023-08-19T18:05:39.070Z,10.10
2023-08-19T18:08:06.995Z,14.02
2023-08-19T18:10:34.413Z,12.73
2023-08-19T18:13:02.076Z,12.18
2023-08-19T18:15:29.499Z,13.18
2023-08-19T18:17:56.925Z,12.05
2023-08-19T18:20:24.351Z,9.50
2023-08-19T18:22:51.727Z,11.23
2023-08-19T18:25:19.093Z,14.68
2023-08-19T18:27:51.756Z,12.05
2023-08-19T18:30:19.837Z,11.57
2023-08-19T18:32:50.230Z,9.73
2023-08-19T18:35:19.227Z,15.82
2023-08-19T18:37:47.035Z,11.52
2023-08-19T18:40:15.896Z,13.00
2023-08-19T18:42:44.251Z,13.18
2023-08-19T18:45:14.129Z,9.65
2023-08-19T18:48:02.211Z,18.58
2023-08-19T18:50:29.731Z,19.65
2023-08-19T18:52:57.178Z,14.25
2023-08-19T18:55:24.636Z,13.45
2023-08-19T18:57:52.004Z,11.15
2023-08-19T19:00:19.507Z,9.80
2023-08-19T19:02:46.993Z,16.33
2023-08-19T19:05:15.233Z,11.80
2023-08-19T19:07:42.921Z,12.70
2023-08-19T19:10:10.771Z,14.30
2023-08-19T19:12:39.587Z,11.27
2023-08-19T19:15:07.674Z,16.50
2023-08-19T19:17:53.025Z,18.00
2023-08-19T19:20:21.673Z,14.55
2023-08-19T19:22:49.980Z,18.65
2023-08-19T19:25:19.137Z,16.63
2023-08-19T19:27:48.049Z,16.58
2023-08-19T19:30:17.509Z,16.08
2023-08-19T19:32:46.126Z,12.20
2023-08-19T19:35:17.502Z,11.23
2023-08-19T19:37:45.577Z,23.60
2023-08-19T19:40:17.920Z,16.05
2023-08-19T19:42:45.905Z,14.05
2023-08-19T19:45:15.785Z,13.98
2023-08-19T19:47:46.813Z,11.75
2023-08-19T19:50:14.147Z,10.98
2023-08-19T19:52:41.712Z,14.57
2023-08-19T19:55:09.923Z,14.73
2023-08-19T19:57:37.981Z,12.55
2023-08-19T20:00:09.210Z,17.70
2023-08-19T20:02:36.969Z,15.82
2023-08-19T20:05:04.894Z,19.30
2023-08-19T20:07:32.305Z,12.10
2023-08-19T20:12:34.960Z,12.18
2023-08-19T20:15:02.418Z,13.38
2023-08-19T20:17:29.804Z,17.30
2023-08-19T20:19:57.207Z,11.73
2023-08-19T20:22:24.648Z,12.13
2023-08-19T20:24:51.923Z,12.65
2023-08-19T20:27:21.792Z,13.13
2023-08-19T20:29:49.179Z,10.88
2023-08-19T20:32:16.484Z,15.77
2023-08-19T20:34:43.904Z,14.93
2023-08-19T20:37:11.228Z,12.27
2023-08-19T20:39:38.510Z,14.80
2023-08-19T20:42:06.008Z,15.57
2023-08-19T20:44:33.378Z,12.05
2023-08-19T20:47:00.680Z,12.25
2023-08-19T20:49:28.203Z,16.42
2023-08-19T20:51:55.567Z,11.30
2023-08-19T20:54:22.831Z,12.57
2023-08-19T20:56:50.212Z,15.73
2023-08-19T20:59:17.628Z,11.75
2023-08-19T21:01:46.288Z,11.40
2023-08-19T21:04:13.717Z,13.93
2023-08-19T21:06:41.119Z,17.90
2023-08-19T21:09:08.451Z,11.25
2023-08-19T21:11:38.201Z,16.70
2023-08-19T21:14:06.003Z,11.85
2023-08-19T21:16:33.630Z,11.65
2023-08-19T21:19:01.031Z,11.95
2023-08-19T21:21:28.330Z,14.45
2023-08-19T21:23:55.704Z,12.05
2023-08-19T21:26:23.017Z,13.07
2023-08-19T21:28:50.443Z,16.90
2023-08-19T21:31:17.849Z,10.60
2023-08-19T21:33:45.192Z,12.68
2023-08-19T21:36:12.566Z,13.15
2023-08-19T21:38:39.900Z,15.00
2023-08-19T21:41:08.486Z,12.63
2023-08-19T21:43:35.829Z,14.25
2023-08-19T21:46:03.295Z,13.18
2023-08-19T21:48:30.631Z,13.15
2023-08-19T21:50:57.983Z,11.07
2023-08-19T21:53:25.454Z,10.50
2023-08-19T21:55:52.868Z,11.25
2023-08-19T21:58:23.171Z,12.18
2023-08-19T22:00:50.767Z,12.38
2023-08-19T22:03:18.260Z,12.43
2023-08-19T22:05:47.627Z,12.15
2023-08-19T22:08:15.660Z,12.02
2023-08-19T22:10:43.659Z,13.73
2023-08-19T22:13:11.549Z,10.98
2023-08-19T22:15:39.121Z,11.55
2023-08-19T22:18:07.306Z,18.60
2023-08-19T22:23:05.668Z,11.80
2023-08-19T22:25:33.174Z,13.95
2023-08-19T22:28:00.819Z,11.77
2023-08-19T22:30:28.168Z,14.80
2023-08-19T22:32:55.607Z,10.80
2023-08-19T22:35:23.135Z,12.60
2023-08-19T22:37:50.490Z,11.50
2023-08-19T22:40:17.977Z,12.82
2023-08-19T22:42:46.414Z,12.70
2023-08-19T22:45:15.957Z,10.13
2023-08-19T22:47:45.199Z,13.68
2023-08-19T22:50:14.383Z,17.20
2023-08-19T22:52:41.772Z,14.68
2023-08-19T22:55:10.916Z,14.63
2023-08-19T22:57:38.479Z,12.98
2023-08-19T23:00:06.915Z,12.27
2023-08-19T23:02:35.501Z,17.90
2023-08-19T23:05:03.064Z,11.27
2023-08-19T23:07:32.675Z,13.40
2023-08-19T23:10:00.892Z,11.40
2023-08-19T23:12:28.286Z,12.02
2023-08-19T23:14:57.719Z,14.98
2023-08-19T23:17:27.388Z,11.65
2023-08-19T23:19:54.718Z,15.40
2023-08-19T23:22:22.057Z,11.20
2023-08-19T23:24:50.311Z,18.52
2023-08-19T23:27:18.112Z,10.05
2023-08-19T23:29:45.437Z,13.77
2023-08-19T23:32:12.789Z,12.50
2023-08-19T23:34:40.167Z,13.65
2023-08-19T23:37:07.514Z,11.48
2023-08-19T23:39:35.001Z,11.90
2023-08-19T23:42:02.322Z,11.68
2023-08-19T23:44:29.718Z,12.98
2023-08-19T23:46:59.868Z,11.75
2023-08-19T23:49:27.491Z,15.23
2023-08-19T23:51:58.735Z,12.52
2023-08-19T23:54:28.826Z,12.85
2023-08-19T23:56:56.432Z,14.18
2023-08-19T23:59:24.141Z,15.32
